createdAt,value
2023-04-12T00:00:30.000Z,2403.0
2023-04-12T00:01:29.000Z,2314.0
2023-04-12T00:02:30.000Z,2377.0
2023-04-12T00:03:30.000Z,2323.0
2023-04-12T00:04:29.000Z,2412.0
2023-04-12T00:05:30.000Z,2465.0
2023-04-12T00:06:30.000Z,2574.0
2023-04-12T00:07:29.000Z,2659.0
2023-04-12T00:08:30.000Z,2660.0
2023-04-12T00:09:29.000Z,2693.0
2023-04-12T00:10:30.000Z,2694.0
2023-04-12T00:11:30.000Z,2659.0
2023-04-12T00:12:29.000Z,2615.0
2023-04-12T00:13:30.000Z,2750.0
2023-04-12T00:14:29.000Z,2783.0
2023-04-12T00:15:30.000Z,2730.0
2023-04-12T00:16:30.000Z,2727.0
2023-04-12T00:17:29.000Z,2708.0
2023-04-12T00:18:30.000Z,2667.0
2023-04-12T00:19:30.000Z,2592.0
2023-04-12T00:20:29.000Z,2615.0
2023-04-12T00:21:30.000Z,2540.0
2023-04-12T00:22:29.000Z,2517.0
2023-04-12T00:23:30.000Z,2605.0
2023-04-12T00:24:30.000Z,2546.0
2023-04-12T00:25:29.000Z,2553.0
2023-04-12T00:26:30.000Z,2604.0
2023-04-12T00:27:30.000Z,2631.0
2023-04-12T00:28:30.000Z,2611.0
2023-04-12T00:29:30.000Z,2569.0
2023-04-12T00:30:29.000Z,2490.0
2023-04-12T00:31:30.000Z,2492.0
2023-04-12T00:32:30.000Z,2593.0
2023-04-12T00:33:29.000Z,2549.0
2023-04-12T00:34:30.000Z,2491.0
2023-04-12T00:35:29.000Z,2478.0
2023-04-12T00:36:30.000Z,2528.0
2023-04-12T00:37:30.000Z,2555.0
2023-04-12T00:38:29.000Z,2558.0
2023-04-12T00:39:30.000Z,2521.0
2023-04-12T00:40:30.000Z,2475.0
2023-04-12T00:41:29.000Z,2501.0
2023-04-12T00:42:30.000Z,2538.0
2023-04-12T00:43:30.000Z,2535.0
2023-04-12T00:44:29.000Z,2494.0
2023-04-12T00:45:30.000Z,2499.0
2023-04-12T00:46:29.000Z,2411.0
2023-04-12T00:47:30.000Z,2446.0
2023-04-12T00:48:30.000Z,2394.0
2023-04-12T00:49:29.000Z,2391.0
2023-04-12T00:50:30.000Z,2400.0
2023-04-12T00:51:30.000Z,2430.0
2023-04-12T00:52:29.000Z,2500.0
2023-04-12T00:53:30.000Z,2513.0
2023-04-12T00:54:29.000Z,2539.0
2023-04-12T00:55:30.000Z,2520.0
2023-04-12T00:56:30.000Z,2496.0
2023-04-12T00:57:29.000Z,2450.0
2023-04-12T00:58:30.000Z,2530.0
2023-04-12T00:59:29.000Z,2573.0
2023-04-12T01:00:30.000Z,2558.0
2023-04-12T01:01:30.000Z,2447.0
2023-04-12T01:02:29.000Z,2435.0
2023-04-12T01:03:30.000Z,2453.0
2023-04-12T01:04:30.000Z,2409.0
2023-04-12T01:05:29.000Z,2398.0
2023-04-12T01:06:30.000Z,2470.0
2023-04-12T01:07:29.000Z,2432.0
2023-04-12T01:08:30.000Z,2465.0
2023-04-12T01:09:30.000Z,2471.0
2023-04-12T01:10:29.000Z,2514.0
2023-04-12T01:11:30.000Z,2442.0
2023-04-12T01:12:29.000Z,2463.0
2023-04-12T01:13:30.000Z,2449.0
2023-04-12T01:14:30.000Z,2519.0
2023-04-12T01:15:29.000Z,2503.0
2023-04-12T01:16:30.000Z,2436.0
2023-04-12T01:17:30.000Z,2488.0
2023-04-12T01:18:29.000Z,2434.0
2023-04-12T01:19:30.000Z,2411.0
2023-04-12T01:20:29.000Z,2489.0
2023-04-12T01:21:30.000Z,2523.0
2023-04-12T01:22:30.000Z,2593.0
2023-04-12T01:23:29.000Z,2662.0
2023-04-12T01:24:30.000Z,2725.0
2023-04-12T01:25:29.000Z,2634.0
2023-04-12T01:26:30.000Z,2618.0
2023-04-12T01:27:30.000Z,2589.0
2023-04-12T01:28:29.000Z,2540.0
2023-04-12T01:29:30.000Z,2516.0
2023-04-12T01:30:30.000Z,2556.0
2023-04-12T01:31:29.000Z,2563.0
2023-04-12T01:32:30.000Z,2519.0
2023-04-12T01:33:29.000Z,2584.0
2023-04-12T01:34:30.000Z,2585.0
2023-04-12T01:35:30.000Z,2551.0
2023-04-12T01:36:29.000Z,2531.0
2023-04-12T01:37:30.000Z,2628.0
2023-04-12T01:38:29.000Z,2639.0
2023-04-12T01:39:29.000Z,2671.0
2023-04-12T01:40:30.000Z,2631.0
2023-04-12T01:41:29.000Z,2698.0
2023-04-12T01:42:30.000Z,2710.0
2023-04-12T01:43:30.000Z,2623.0
2023-04-12T01:44:29.000Z,2703.0
2023-04-12T01:45:30.000Z,2675.0
2023-04-12T01:46:30.000Z,2631.0
2023-04-12T01:47:29.000Z,2698.0
2023-04-12T01:48:30.000Z,2690.0
2023-04-12T01:49:29.000Z,2703.0
2023-04-12T01:50:30.000Z,2657.0
2023-04-12T01:51:30.000Z,2638.0
2023-04-12T01:52:29.000Z,2615.0
2023-04-12T01:53:30.000Z,2595.0
2023-04-12T01:54:30.000Z,2651.0
2023-04-12T01:55:29.000Z,2686.0
2023-04-12T01:56:30.000Z,2616.0
2023-04-12T01:57:29.000Z,2603.0
2023-04-12T01:58:30.000Z,2573.0
2023-04-12T01:59:30.000Z,2473.0
2023-04-12T02:00:29.000Z,2525.0
2023-04-12T02:01:30.000Z,2513.0
2023-04-12T02:02:29.000Z,2515.0
2023-04-12T02:03:30.000Z,2542.0
2023-04-12T02:04:30.000Z,2529.0
2023-04-12T02:05:29.000Z,2601.0
2023-04-12T02:06:30.000Z,2616.0
2023-04-12T02:07:30.000Z,2579.0
2023-04-12T02:08:29.000Z,2626.0
2023-04-12T02:09:30.000Z,2596.0
2023-04-12T02:10:29.000Z,2544.0
2023-04-12T02:11:30.000Z,2485.0
2023-04-12T02:12:30.000Z,2556.0
2023-04-12T02:13:29.000Z,2609.0
2023-04-12T02:14:30.000Z,2601.0
2023-04-12T02:15:30.000Z,2617.0
2023-04-12T02:16:29.000Z,2574.0
2023-04-12T02:17:30.000Z,2684.0
2023-04-12T02:18:29.000Z,2706.0
2023-04-12T02:19:30.000Z,2637.0
2023-04-12T02:20:30.000Z,2605.0
2023-04-12T02:21:29.000Z,2534.0
2023-04-12T02:22:30.000Z,2544.0
2023-04-12T02:23:29.000Z,2599.0
2023-04-12T02:24:30.000Z,2651.0
2023-04-12T02:25:30.000Z,2538.0
2023-04-12T02:26:29.000Z,2555.0
2023-04-12T02:27:30.000Z,2647.0
2023-04-12T02:28:29.000Z,2572.0
2023-04-12T02:29:30.000Z,2494.0
2023-04-12T02:30:30.000Z,2546.0
2023-04-12T02:31:29.000Z,2489.0
2023-04-12T02:32:30.000Z,2569.0
2023-04-12T02:33:30.000Z,2553.0
2023-04-12T02:34:29.000Z,2575.0
2023-04-12T02:35:30.000Z,2676.0
2023-04-12T02:36:29.000Z,2608.0
2023-04-12T02:37:30.000Z,2603.0
2023-04-12T02:38:30.000Z,2548.0
2023-04-12T02:39:29.000Z,2556.0
2023-04-12T02:40:30.000Z,2509.0
2023-04-12T02:41:30.000Z,2538.0
2023-04-12T02:42:29.000Z,2619.0
2023-04-12T02:43:30.000Z,2599.0
2023-04-12T02:44:29.000Z,2661.0
2023-04-12T02:45:30.000Z,2631.0
2023-04-12T02:46:30.000Z,2632.0
2023-04-12T02:47:29.000Z,2623.0
2023-04-12T02:48:30.000Z,2662.0
2023-04-12T02:49:29.000Z,2676.0
2023-04-12T02:50:30.000Z,2581.0
2023-04-12T02:51:30.000Z,2603.0
2023-04-12T02:52:29.000Z,2575.0
2023-04-12T02:53:30.000Z,2721.0
2023-04-12T02:54:30.000Z,2677.0
2023-04-12T02:55:29.000Z,2668.0
2023-04-12T02:56:30.000Z,2696.0
2023-04-12T02:57:29.000Z,2623.0
2023-04-12T02:58:30.000Z,2694.0
2023-04-12T02:59:30.000Z,2649.0
2023-04-12T03:00:29.000Z,2685.0
2023-04-12T03:01:30.000Z,2688.0
2023-04-12T03:02:29.000Z,2722.0
2023-04-12T03:03:30.000Z,2651.0
2023-04-12T03:04:30.000Z,2752.0
2023-04-12T03:05:29.000Z,2780.0
2023-04-12T03:06:30.000Z,2730.0
2023-04-12T03:07:30.000Z,2673.0
2023-04-12T03:08:29.000Z,2617.0
2023-04-12T03:09:30.000Z,2648.0
2023-04-12T03:10:29.000Z,2687.0
2023-04-12T03:11:30.000Z,2762.0
2023-04-12T03:12:30.000Z,2808.0
2023-04-12T03:13:29.000Z,2822.0
2023-04-12T03:14:30.000Z,2859.0
2023-04-12T03:15:29.000Z,2834.0
2023-04-12T03:16:30.000Z,2874.0
2023-04-12T03:17:30.000Z,2963.0
2023-04-12T03:18:29.000Z,2869.0
2023-04-12T03:19:30.000Z,2816.0
2023-04-12T03:20:30.000Z,2865.0
2023-04-12T03:21:29.000Z,2828.0
2023-04-12T03:22:30.000Z,2795.0
2023-04-12T03:23:29.000Z,2830.0
2023-04-12T03:24:30.000Z,2651.0
2023-04-12T03:25:30.000Z,2715.0
2023-04-12T03:26:29.000Z,2645.0
2023-04-12T03:27:30.000Z,2744.0
2023-04-12T03:28:29.000Z,2654.0
2023-04-12T03:29:30.000Z,2714.0
2023-04-12T03:30:30.000Z,2648.0
2023-04-12T03:31:29.000Z,2704.0
2023-04-12T03:32:30.000Z,2692.0
2023-04-12T03:33:30.000Z,2739.0
2023-04-12T03:34:29.000Z,2727.0
2023-04-12T03:35:30.000Z,2688.0
2023-04-12T03:36:29.000Z,2733.0
2023-04-12T03:37:30.000Z,2636.0
2023-04-12T03:38:30.000Z,2689.0
2023-04-12T03:39:29.000Z,2705.0
2023-04-12T03:40:30.000Z,2677.0
2023-04-12T03:41:30.000Z,2622.0
2023-04-12T03:42:29.000Z,2733.0
2023-04-12T03:44:30.000Z,2773.0
2023-04-12T03:45:29.000Z,2764.0
2023-04-12T03:46:30.000Z,2781.0
2023-04-12T03:47:29.000Z,2745.0
2023-04-12T03:48:30.000Z,2696.0
2023-04-12T03:49:30.000Z,2669.0
2023-04-12T03:50:29.000Z,2720.0
2023-04-12T03:51:30.000Z,2747.0
2023-04-12T03:52:30.000Z,2611.0
2023-04-12T03:53:29.000Z,2717.0
2023-04-12T03:54:30.000Z,2707.0
2023-04-12T03:55:29.000Z,2752.0
2023-04-12T03:56:30.000Z,2729.0
2023-04-12T03:57:30.000Z,2661.0
2023-04-12T03:58:29.000Z,2668.0
2023-04-12T03:59:30.000Z,2607.0
2023-04-12T04:00:29.000Z,2626.0
2023-04-12T04:01:30.000Z,2691.0
2023-04-12T04:02:30.000Z,2712.0
2023-04-12T04:03:29.000Z,2707.0
2023-04-12T04:04:30.000Z,2696.0
2023-04-12T04:05:29.000Z,2747.0
2023-04-12T04:06:30.000Z,2638.0
2023-04-12T04:07:30.000Z,2649.0
2023-04-12T04:08:29.000Z,2704.0
2023-04-12T04:09:30.000Z,2666.0
2023-04-12T04:10:30.000Z,2666.0
2023-04-12T04:11:29.000Z,2689.0
2023-04-12T04:12:30.000Z,2652.0
2023-04-12T04:13:29.000Z,2752.0
2023-04-12T04:14:30.000Z,2745.0
2023-04-12T04:15:30.000Z,2697.0
2023-04-12T04:16:29.000Z,2722.0
2023-04-12T04:17:30.000Z,2663.0
2023-04-12T04:18:30.000Z,2698.0
2023-04-12T04:19:29.000Z,2592.0
2023-04-12T04:20:30.000Z,2619.0
2023-04-12T04:21:29.000Z,2598.0
2023-04-12T04:22:30.000Z,2531.0
2023-04-12T04:23:30.000Z,2621.0
2023-04-12T04:24:29.000Z,2572.0
2023-04-12T04:25:30.000Z,2635.0
2023-04-12T04:26:29.000Z,2598.0
2023-04-12T04:27:30.000Z,2637.0
2023-04-12T04:28:30.000Z,2606.0
2023-04-12T04:29:29.000Z,2640.0
2023-04-12T04:30:30.000Z,2636.0
2023-04-12T04:31:29.000Z,2588.0
2023-04-12T04:32:29.000Z,2635.0
2023-04-12T04:33:30.000Z,2630.0
2023-04-12T04:34:29.000Z,2663.0
2023-04-12T04:35:30.000Z,2731.0
2023-04-12T04:36:30.000Z,2779.0
2023-04-12T04:37:29.000Z,2697.0
2023-04-12T04:38:30.000Z,2656.0
2023-04-12T04:39:30.000Z,2707.0
2023-04-12T04:40:29.000Z,2618.0
2023-04-12T04:41:30.000Z,2499.0
2023-04-12T04:42:29.000Z,2560.0
2023-04-12T04:43:30.000Z,2510.0
2023-04-12T04:44:30.000Z,2586.0
2023-04-12T04:45:29.000Z,2569.0
2023-04-12T04:46:30.000Z,2549.0
2023-04-12T04:47:29.000Z,2558.0
2023-04-12T04:48:30.000Z,2636.0
2023-04-12T04:49:30.000Z,2666.0
2023-04-12T04:50:29.000Z,2649.0
2023-04-12T04:51:30.000Z,2673.0
2023-04-12T04:52:29.000Z,2672.0
2023-04-12T04:53:29.000Z,2696.0
2023-04-12T04:54:30.000Z,2739.0
2023-04-12T04:55:29.000Z,2747.0
2023-04-12T04:56:30.000Z,2635.0
2023-04-12T04:57:30.000Z,2740.0
2023-04-12T04:58:29.000Z,2706.0
2023-04-12T04:59:30.000Z,2735.0
2023-04-12T05:00:29.000Z,2799.0
2023-04-12T05:01:30.000Z,2771.0
2023-04-12T05:02:30.000Z,2842.0
2023-04-12T05:03:29.000Z,2814.0
2023-04-12T05:04:30.000Z,2845.0
2023-04-12T05:05:30.000Z,2817.0
2023-04-12T05:06:29.000Z,2802.0
2023-04-12T05:07:30.000Z,2695.0
2023-04-12T05:08:29.000Z,2761.0
2023-04-12T05:09:30.000Z,2724.0
2023-04-12T05:10:30.000Z,2754.0
2023-04-12T05:11:29.000Z,2740.0
2023-04-12T05:12:30.000Z,2720.0
2023-04-12T05:13:29.000Z,2748.0
2023-04-12T05:14:30.000Z,2647.0
2023-04-12T05:15:30.000Z,2643.0
2023-04-12T05:16:29.000Z,2606.0
2023-04-12T05:17:30.000Z,2720.0
2023-04-12T05:18:30.000Z,2723.0
2023-04-12T05:19:29.000Z,2775.0
2023-04-12T05:20:30.000Z,2799.0
2023-04-12T05:21:29.000Z,2743.0
2023-04-12T05:22:30.000Z,2638.0
2023-04-12T05:23:30.000Z,2682.0
2023-04-12T05:24:29.000Z,2683.0
2023-04-12T05:25:30.000Z,2743.0
2023-04-12T05:26:29.000Z,2616.0
2023-04-12T05:27:30.000Z,2618.0
2023-04-12T05:28:30.000Z,2561.0
2023-04-12T05:29:29.000Z,2550.0
2023-04-12T05:30:30.000Z,2621.0
2023-04-12T05:31:30.000Z,2761.0
2023-04-12T05:32:29.000Z,2764.0
2023-04-12T05:33:30.000Z,2770.0
2023-04-12T05:34:29.000Z,2707.0
2023-04-12T05:35:30.000Z,2672.0
2023-04-12T05:36:30.000Z,2713.0
2023-04-12T05:37:29.000Z,2684.0
2023-04-12T05:38:30.000Z,2690.0
2023-04-12T05:39:30.000Z,2678.0
2023-04-12T05:41:30.000Z,2663.0
2023-04-12T05:42:29.000Z,2587.0
2023-04-12T05:43:30.000Z,2644.0
2023-04-12T05:44:30.000Z,2677.0
2023-04-12T05:45:29.000Z,2718.0
2023-04-12T05:46:30.000Z,2738.0
2023-04-12T05:47:29.000Z,2714.0
2023-04-12T05:48:30.000Z,2761.0
2023-04-12T05:49:30.000Z,2832.0
2023-04-12T05:50:29.000Z,2916.0
2023-04-12T05:51:30.000Z,2837.0
2023-04-12T05:52:30.000Z,2908.0
2023-04-12T05:53:29.000Z,2899.0
2023-04-12T05:54:30.000Z,2772.0
2023-04-12T05:55:29.000Z,2781.0
2023-04-12T05:56:30.000Z,2828.0
2023-04-12T05:57:30.000Z,2844.0
2023-04-12T05:58:29.000Z,2760.0
2023-04-12T05:59:30.000Z,2669.0
2023-04-12T06:00:29.000Z,2642.0
2023-04-12T06:01:30.000Z,2629.0
2023-04-12T06:02:30.000Z,2711.0
2023-04-12T06:03:29.000Z,2749.0
2023-04-12T06:04:30.000Z,2825.0
2023-04-12T06:05:30.000Z,2811.0
2023-04-12T06:06:29.000Z,2830.0
2023-04-12T06:07:30.000Z,2834.0
2023-04-12T06:08:29.000Z,2875.0
2023-04-12T06:09:30.000Z,2773.0
2023-04-12T06:10:30.000Z,2753.0
2023-04-12T06:11:29.000Z,2838.0
2023-04-12T06:12:30.000Z,2711.0
2023-04-12T06:13:29.000Z,2657.0
2023-04-12T06:14:30.000Z,2807.0
2023-04-12T06:15:30.000Z,2753.0
2023-04-12T06:16:29.000Z,2694.0
2023-04-12T06:17:30.000Z,2670.0
2023-04-12T06:18:30.000Z,2764.0
2023-04-12T06:19:29.000Z,2812.0
2023-04-12T06:20:30.000Z,2726.0
2023-04-12T06:21:29.000Z,2751.0
2023-04-12T06:22:30.000Z,2730.0
2023-04-12T06:23:30.000Z,2799.0
2023-04-12T06:24:29.000Z,2775.0
2023-04-12T06:25:30.000Z,2814.0
2023-04-12T06:26:29.000Z,2814.0
2023-04-12T06:27:30.000Z,2785.0
2023-04-12T06:28:30.000Z,2746.0
2023-04-12T06:29:29.000Z,2825.0
2023-04-12T06:30:30.000Z,2781.0
2023-04-12T06:31:30.000Z,2819.0
2023-04-12T06:32:29.000Z,2821.0
2023-04-12T06:33:30.000Z,2682.0
2023-04-12T06:34:29.000Z,2721.0
2023-04-12T06:35:30.000Z,2711.0
2023-04-12T06:36:30.000Z,2713.0
2023-04-12T06:37:29.000Z,2785.0
2023-04-12T06:38:30.000Z,2821.0
2023-04-12T06:39:30.000Z,2887.0
2023-04-12T06:40:29.000Z,2926.0
2023-04-12T06:41:30.000Z,2844.0
2023-04-12T06:42:29.000Z,2800.0
2023-04-12T06:43:29.000Z,2777.0
2023-04-12T06:44:30.000Z,2716.0
2023-04-12T06:45:29.000Z,2755.0
2023-04-12T06:46:30.000Z,2853.0
2023-04-12T06:47:30.000Z,2875.0
2023-04-12T06:48:29.000Z,2828.0
2023-04-12T06:49:30.000Z,2832.0
2023-04-12T06:50:29.000Z,2766.0
2023-04-12T06:51:30.000Z,2700.0
2023-04-12T06:52:30.000Z,2695.0
2023-04-12T06:53:29.000Z,2727.0
2023-04-12T06:54:30.000Z,2733.0
2023-04-12T06:55:30.000Z,2744.0
2023-04-12T06:56:29.000Z,2805.0
2023-04-12T06:57:30.000Z,2840.0
2023-04-12T06:58:29.000Z,2789.0
2023-04-12T06:59:30.000Z,2808.0
2023-04-12T07:00:30.000Z,2780.0
2023-04-12T07:01:29.000Z,2714.0
2023-04-12T07:02:30.000Z,2650.0
2023-04-12T07:03:29.000Z,2577.0
2023-04-12T07:04:30.000Z,2600.0
2023-04-12T07:05:30.000Z,2591.0
2023-04-12T07:06:29.000Z,2644.0
2023-04-12T07:07:30.000Z,2600.0
2023-04-12T07:08:30.000Z,2531.0
2023-04-12T07:09:29.000Z,2591.0
2023-04-12T07:10:30.000Z,2539.0
2023-04-12T07:11:29.000Z,2548.0
2023-04-12T07:12:30.000Z,2484.0
2023-04-12T07:13:30.000Z,2527.0
2023-04-12T07:14:29.000Z,2612.0
2023-04-12T07:15:30.000Z,2624.0
2023-04-12T07:16:29.000Z,2611.0
2023-04-12T07:17:30.000Z,2672.0
2023-04-12T07:18:30.000Z,2744.0
2023-04-12T07:19:29.000Z,2768.0
2023-04-12T07:20:30.000Z,2691.0
2023-04-12T07:21:30.000Z,2585.0
2023-04-12T07:22:29.000Z,2510.0
2023-04-12T07:23:30.000Z,2479.0
2023-04-12T07:24:29.000Z,2400.0
2023-04-12T07:25:30.000Z,2454.0
2023-04-12T07:26:30.000Z,2479.0
2023-04-12T07:27:29.000Z,2525.0
2023-04-12T07:28:30.000Z,2509.0
2023-04-12T07:29:29.000Z,2344.0
2023-04-12T07:30:29.000Z,2360.0
2023-04-12T07:31:30.000Z,2336.0
2023-04-12T07:32:29.000Z,2382.0
2023-04-12T07:33:30.000Z,2344.0
2023-04-12T07:34:30.000Z,2263.0
2023-04-12T07:35:29.000Z,2263.0
2023-04-12T07:36:30.000Z,2253.0
2023-04-12T07:37:29.000Z,2252.0
2023-04-12T07:38:29.000Z,2246.0
2023-04-12T07:39:30.000Z,2200.0
2023-04-12T07:40:29.000Z,2276.0
2023-04-12T07:41:30.000Z,2202.0
2023-04-12T07:42:30.000Z,2234.0
2023-04-12T07:43:29.000Z,2203.0
2023-04-12T07:44:30.000Z,2230.0
2023-04-12T07:45:30.000Z,2189.0
2023-04-12T07:46:29.000Z,2137.0
2023-04-12T07:47:30.000Z,2173.0
2023-04-12T07:48:29.000Z,2138.0
2023-04-12T07:49:30.000Z,2175.0
2023-04-12T07:50:30.000Z,2166.0
2023-04-12T07:51:29.000Z,2129.0
2023-04-12T07:52:30.000Z,2071.0
2023-04-12T07:53:29.000Z,2071.0
2023-04-12T07:54:30.000Z,2117.0
2023-04-12T07:55:30.000Z,2118.0
2023-04-12T07:56:29.000Z,2106.0
2023-04-12T07:57:30.000Z,2130.0
2023-04-12T07:58:30.000Z,2151.0
2023-04-12T07:59:29.000Z,2072.0
2023-04-12T08:00:30.000Z,2108.0
2023-04-12T08:01:29.000Z,2094.0
2023-04-12T08:02:30.000Z,2098.0
2023-04-12T08:03:30.000Z,2110.0
2023-04-12T08:04:29.000Z,2086.0
2023-04-12T08:05:30.000Z,2108.0
2023-04-12T08:06:29.000Z,2218.0
2023-04-12T08:07:29.000Z,2221.0
2023-04-12T08:08:30.000Z,2139.0
2023-04-12T08:09:29.000Z,2074.0
2023-04-12T08:10:30.000Z,2079.0
2023-04-12T08:11:30.000Z,2051.0
2023-04-12T08:12:29.000Z,1984.0
2023-04-12T08:13:30.000Z,1989.0
2023-04-12T08:14:29.000Z,1966.0
2023-04-12T08:15:30.000Z,1965.0
2023-04-12T08:16:30.000Z,2011.0
2023-04-12T08:17:29.000Z,2076.0
2023-04-12T08:18:30.000Z,2030.0
2023-04-12T08:19:30.000Z,2050.0
2023-04-12T08:20:29.000Z,2144.0
2023-04-12T08:21:30.000Z,2087.0
2023-04-12T08:22:29.000Z,2034.0
2023-04-12T08:23:30.000Z,1972.0
2023-04-12T08:24:30.000Z,1993.0
2023-04-12T08:25:29.000Z,1890.0
2023-04-12T08:26:30.000Z,1898.0
2023-04-12T08:27:29.000Z,1854.0
2023-04-12T08:28:30.000Z,1893.0
2023-04-12T08:29:30.000Z,1915.0
2023-04-12T08:30:29.000Z,1899.0
2023-04-12T08:31:30.000Z,1882.0
2023-04-12T08:32:29.000Z,1845.0
2023-04-12T08:33:29.000Z,1815.0
2023-04-12T08:34:30.000Z,1852.0
2023-04-12T08:35:29.000Z,1909.0
2023-04-12T08:36:30.000Z,1935.0
2023-04-12T08:37:30.000Z,1883.0
2023-04-12T08:38:29.000Z,1946.0
2023-04-12T08:39:30.000Z,1914.0
2023-04-12T08:40:30.000Z,1929.0
2023-04-12T08:41:29.000Z,1948.0
2023-04-12T08:42:30.000Z,2010.0
2023-04-12T08:43:29.000Z,1981.0
2023-04-12T08:44:30.000Z,2039.0
2023-04-12T08:45:30.000Z,2070.0
2023-04-12T08:46:29.000Z,2095.0
2023-04-12T08:47:30.000Z,2136.0
2023-04-12T08:48:30.000Z,2084.0
2023-04-12T08:49:29.000Z,2087.0
2023-04-12T08:50:30.000Z,2116.0
2023-04-12T08:51:29.000Z,2012.0
2023-04-12T08:52:30.000Z,1973.0
2023-04-12T08:53:30.000Z,1937.0
2023-04-12T08:54:29.000Z,1895.0
2023-04-12T08:55:30.000Z,1904.0
2023-04-12T08:56:30.000Z,1951.0
2023-04-12T08:57:29.000Z,1983.0
2023-04-12T08:58:30.000Z,2022.0
2023-04-12T08:59:29.000Z,2002.0
2023-04-12T09:00:30.000Z,2012.0
2023-04-12T09:01:30.000Z,2061.0
2023-04-12T09:02:29.000Z,2041.0
2023-04-12T09:03:30.000Z,2041.0
2023-04-12T09:04:29.000Z,2089.0
2023-04-12T09:05:30.000Z,2018.0
2023-04-12T09:06:30.000Z,2019.0
2023-04-12T09:07:29.000Z,2018.0
2023-04-12T09:08:30.000Z,2087.0
2023-04-12T09:09:29.000Z,2146.0
2023-04-12T09:10:29.000Z,2099.0
2023-04-12T09:11:30.000Z,2054.0
2023-04-12T09:12:29.000Z,2031.0
2023-04-12T09:13:30.000Z,1999.0
2023-04-12T09:14:30.000Z,1963.0
2023-04-12T09:15:29.000Z,1939.0
2023-04-12T09:16:30.000Z,1905.0
2023-04-12T09:17:29.000Z,1945.0
2023-04-12T09:18:30.000Z,2008.0
2023-04-12T09:19:30.000Z,2029.0
2023-04-12T09:20:29.000Z,2031.0
2023-04-12T09:21:30.000Z,2068.0
2023-04-12T09:22:30.000Z,2073.0
2023-04-12T09:23:29.000Z,2031.0
2023-04-12T09:24:30.000Z,2002.0
2023-04-12T09:25:29.000Z,1968.0
2023-04-12T09:26:30.000Z,1945.0
2023-04-12T09:27:30.000Z,1914.0
2023-04-12T09:28:29.000Z,1980.0
2023-04-12T09:29:30.000Z,1994.0
2023-04-12T09:30:29.000Z,2042.0
2023-04-12T09:31:30.000Z,1988.0
2023-04-12T09:32:30.000Z,1967.0
2023-04-12T09:33:29.000Z,2053.0
2023-04-12T09:34:30.000Z,2024.0
2023-04-12T09:35:30.000Z,2018.0
2023-04-12T09:36:29.000Z,2006.0
2023-04-12T09:37:30.000Z,1998.0
2023-04-12T09:38:30.000Z,2048.0
2023-04-12T09:39:29.000Z,1987.0
2023-04-12T09:40:30.000Z,1947.0
2023-04-12T09:41:29.000Z,1952.0
2023-04-12T09:42:30.000Z,1960.0
2023-04-12T09:44:29.000Z,1992.0
2023-04-12T09:45:30.000Z,2012.0
2023-04-12T09:46:30.000Z,1978.0
2023-04-12T09:47:29.000Z,2048.0
2023-04-12T09:48:30.000Z,2051.0
2023-04-12T09:49:29.000Z,1957.0
2023-04-12T09:50:30.000Z,1868.0
2023-04-12T09:51:30.000Z,1836.0
2023-04-12T09:52:29.000Z,1829.0
2023-04-12T09:53:30.000Z,1775.0
2023-04-12T09:54:29.000Z,1759.0
2023-04-12T09:55:29.000Z,1758.0
2023-04-12T09:56:30.000Z,1748.0
2023-04-12T09:57:29.000Z,1662.0
2023-04-12T09:58:30.000Z,1683.0
2023-04-12T09:59:30.000Z,1716.0
2023-04-12T10:00:29.000Z,1717.0
2023-04-12T10:01:30.000Z,1715.0
2023-04-12T10:02:29.000Z,1714.0
2023-04-12T10:03:30.000Z,1675.0
2023-04-12T10:04:30.000Z,1684.0
2023-04-12T10:05:29.000Z,1698.0
2023-04-12T10:06:30.000Z,1733.0
2023-04-12T10:07:30.000Z,1723.0
2023-04-12T10:08:29.000Z,1672.0
2023-04-12T10:09:30.000Z,1710.0
2023-04-12T10:10:29.000Z,1748.0
2023-04-12T10:11:30.000Z,1720.0
2023-04-12T10:12:30.000Z,1696.0
2023-04-12T10:13:29.000Z,1724.0
2023-04-12T10:14:30.000Z,1709.0
2023-04-12T10:15:29.000Z,1665.0
2023-04-12T10:16:30.000Z,1716.0
2023-04-12T10:17:30.000Z,1697.0
2023-04-12T10:18:29.000Z,1677.0
2023-04-12T10:19:30.000Z,1688.0
2023-04-12T10:20:29.000Z,1667.0
2023-04-12T10:21:29.000Z,1642.0
2023-04-12T10:22:30.000Z,1659.0
2023-04-12T10:23:29.000Z,1699.0
2023-04-12T10:24:30.000Z,1670.0
2023-04-12T10:25:30.000Z,1693.0
2023-04-12T10:26:29.000Z,1707.0
2023-04-12T10:27:30.000Z,1773.0
2023-04-12T10:28:29.000Z,1741.0
2023-04-12T10:29:30.000Z,1751.0
2023-04-12T10:30:30.000Z,1820.0
2023-04-12T10:31:29.000Z,1786.0
2023-04-12T10:32:30.000Z,1746.0
2023-04-12T10:33:30.000Z,1808.0
2023-04-12T10:34:29.000Z,1861.0
2023-04-12T10:35:30.000Z,1805.0
2023-04-12T10:36:29.000Z,1763.0
2023-04-12T10:37:30.000Z,1752.0
2023-04-12T10:38:30.000Z,1755.0
2023-04-12T10:39:29.000Z,1748.0
2023-04-12T10:40:30.000Z,1789.0
2023-04-12T10:41:30.000Z,1779.0
2023-04-12T10:42:29.000Z,1727.0
2023-04-12T10:43:30.000Z,1674.0
2023-04-12T10:44:30.000Z,1681.0
2023-04-12T10:45:29.000Z,924.0
2023-04-12T10:46:30.000Z,532.0
2023-04-12T10:47:29.000Z,479.0
2023-04-12T10:48:30.000Z,469.0
2023-04-12T10:49:30.000Z,728.0
2023-04-12T10:50:29.000Z,971.0
2023-04-12T10:51:30.000Z,1102.0
2023-04-12T10:52:29.000Z,1190.0
2023-04-12T10:53:29.000Z,1271.0
2023-04-12T10:54:30.000Z,1279.0
2023-04-12T10:55:29.000Z,1289.0
2023-04-12T10:56:30.000Z,1298.0
2023-04-12T10:57:30.000Z,1331.0
2023-04-12T10:58:29.000Z,1343.0
2023-04-12T10:59:30.000Z,1356.0
2023-04-12T11:00:29.000Z,1369.0
2023-04-12T11:01:30.000Z,1381.0
2023-04-12T11:02:30.000Z,1389.0
2023-04-12T11:03:29.000Z,1476.0
2023-04-12T11:04:30.000Z,1526.0
2023-04-12T11:05:29.000Z,1509.0
2023-04-12T11:06:29.000Z,1548.0
2023-04-12T11:07:30.000Z,1565.0
2023-04-12T11:08:29.000Z,1574.0
2023-04-12T11:09:30.000Z,1570.0
2023-04-12T11:10:30.000Z,1538.0
2023-04-12T11:11:29.000Z,1517.0
2023-04-12T11:12:30.000Z,1470.0
2023-04-12T11:13:29.000Z,1357.0
2023-04-12T11:14:30.000Z,1342.0
2023-04-12T11:15:30.000Z,1266.0
2023-04-12T11:16:29.000Z,1281.0
2023-04-12T11:17:30.000Z,1249.0
2023-04-12T11:18:29.000Z,1182.0
2023-04-12T11:19:29.000Z,1128.0
2023-04-12T11:20:30.000Z,1060.0
2023-04-12T11:21:29.000Z,982.0
2023-04-12T11:22:30.000Z,874.0
2023-04-12T11:23:30.000Z,744.0
2023-04-12T11:24:29.000Z,644.0
2023-04-12T11:25:30.000Z,572.0
2023-04-12T11:26:29.000Z,514.0
2023-04-12T11:27:30.000Z,487.0
2023-04-12T11:28:30.000Z,468.0
2023-04-12T11:29:29.000Z,454.0
2023-04-12T11:30:30.000Z,423.0
2023-04-12T11:31:29.000Z,412.0
2023-04-12T11:32:29.000Z,417.0
2023-04-12T11:33:30.000Z,410.0
2023-04-12T11:34:29.000Z,405.0
2023-04-12T11:35:30.000Z,402.0
2023-04-12T11:36:30.000Z,410.0
2023-04-12T11:37:29.000Z,415.0
2023-04-12T11:38:30.000Z,428.0
2023-04-12T11:39:30.000Z,479.0
2023-04-12T11:40:29.000Z,486.0
2023-04-12T11:41:30.000Z,486.0
2023-04-12T11:42:29.000Z,483.0
2023-04-12T11:43:29.000Z,489.0
2023-04-12T11:44:30.000Z,490.0
2023-04-12T11:45:29.000Z,502.0
2023-04-12T11:46:30.000Z,500.0
2023-04-12T11:47:30.000Z,524.0
2023-04-12T11:48:29.000Z,558.0
2023-04-12T11:49:30.000Z,610.0
2023-04-12T11:50:29.000Z,656.0
2023-04-12T11:51:30.000Z,695.0
2023-04-12T11:52:30.000Z,739.0
2023-04-12T11:53:29.000Z,790.0
2023-04-12T11:54:30.000Z,824.0
2023-04-12T11:55:29.000Z,885.0
2023-04-12T11:56:29.000Z,922.0
2023-04-12T11:57:30.000Z,1419.0
2023-04-12T11:58:29.000Z,1908.0
2023-04-12T11:59:30.000Z,2398.0
2023-04-12T12:00:30.000Z,2888.0
2023-04-12T12:01:29.000Z,3258.0
2023-04-12T12:02:30.000Z,3632.0
2023-04-12T12:03:29.000Z,3868.0
2023-04-12T12:04:30.000Z,4079.0
2023-04-12T12:05:30.000Z,4259.0
2023-04-12T12:06:29.000Z,4540.0
2023-04-12T12:07:30.000Z,4582.0
2023-04-12T12:08:29.000Z,4683.0
2023-04-12T12:09:29.000Z,4627.0
2023-04-12T12:11:29.000Z,4928.0
2023-04-12T12:12:30.000Z,4876.0
2023-04-12T12:13:30.000Z,4930.0
2023-04-12T12:14:29.000Z,4806.0
2023-04-12T12:15:30.000Z,4854.0
2023-04-12T12:16:29.000Z,4319.0
2023-04-12T12:17:30.000Z,4038.0
2023-04-12T12:18:30.000Z,3946.0
2023-04-12T12:19:29.000Z,3862.0
2023-04-12T12:20:30.000Z,3875.0
2023-04-12T12:21:30.000Z,3930.0
2023-04-12T12:22:29.000Z,3991.0
2023-04-12T12:23:30.000Z,3965.0
2023-04-12T12:24:29.000Z,3910.0
2023-04-12T12:25:30.000Z,3885.0
2023-04-12T12:26:30.000Z,3683.0
2023-04-12T12:27:29.000Z,3577.0
2023-04-12T12:28:30.000Z,3594.0
2023-04-12T12:29:29.000Z,3670.0
2023-04-12T12:30:29.000Z,3647.0
2023-04-12T12:31:30.000Z,3683.0
2023-04-12T12:32:29.000Z,3765.0
2023-04-12T12:33:30.000Z,3765.0